sensor_id;sensor_type;location;lat;lon;timestamp;temperature;humidity
67899;DHT22;54699;51.796;10.956;2022-12-18T00:02:13;14.80;44.90
67899;DHT22;54699;51.796;10.956;2022-12-18T00:04:40;14.80;44.90
67899;DHT22;54699;51.796;10.956;2022-12-18T00:07:07;14.80;44.90
67899;DHT22;54699;51.796;10.956;2022-12-18T00:09:33;14.80;44.80
67899;DHT22;54699;51.796;10.956;2022-12-18T00:12:00;14.80;44.90
67899;DHT22;54699;51.796;10.956;2022-12-18T00:14:27;14.80;44.80
67899;DHT22;54699;51.796;10.956;2022-12-18T00:16:55;14.80;44.80
67899;DHT22;54699;51.796;10.956;2022-12-18T00:19:23;14.80;44.80
67899;DHT22;54699;51.796;10.956;2022-12-18T00:21:50;14.80;44.80
67899;DHT22;54699;51.796;10.956;2022-12-18T00:24:17;14.80;44.80
67899;DHT22;54699;51.796;10.956;2022-12-18T00:26:44;14.70;44.70
67899;DHT22;54699;51.796;10.956;2022-12-18T00:29:11;14.70;44.70
67899;DHT22;54699;51.796;10.956;2022-12-18T00:31:40;14.80;44.80
67899;DHT22;54699;51.796;10.956;2022-12-18T00:34:10;14.70;44.80
67899;DHT22;54699;51.796;10.956;2022-12-18T00:36:38;14.70;44.70
67899;DHT22;54699;51.796;10.956;2022-12-18T00:39:06;14.70;44.70
67899;DHT22;54699;51.796;10.956;2022-12-18T00:41:33;14.70;44.70
67899;DHT22;54699;51.796;10.956;2022-12-18T00:44:17;14.70;44.70
67899;DHT22;54699;51.796;10.956;2022-12-18T00:46:45;14.70;44.70
67899;DHT22;54699;51.796;10.956;2022-12-18T00:49:14;14.70;44.70
67899;DHT22;54699;51.796;10.956;2022-12-18T00:51:42;14.70;44.70
67899;DHT22;54699;51.796;10.956;2022-12-18T00:54:09;14.70;44.70
67899;DHT22;54699;51.796;10.956;2022-12-18T00:56:36;14.70;44.70
67899;DHT22;54699;51.796;10.956;2022-12-18T00:59:03;14.70;44.70
67899;DHT22;54699;51.796;10.956;2022-12-18T01:01:30;14.70;44.60
67899;DHT22;54699;51.796;10.956;2022-12-18T01:03:59;14.70;44.70
67899;DHT22;54699;51.796;10.956;2022-12-18T01:06:27;14.70;44.70
67899;DHT22;54699;51.796;10.956;2022-12-18T01:08:55;14.70;44.70
67899;DHT22;54699;51.796;10.956;2022-12-18T01:11:22;14.70;44.60
67899;DHT22;54699;51.796;10.956;2022-12-18T01:13:49;14.70;44.60
67899;DHT22;54699;51.796;10.956;2022-12-18T01:16:16;14.70;44.60
67899;DHT22;54699;51.796;10.956;2022-12-18T01:18:44;14.70;44.60
67899;DHT22;54699;51.796;10.956;2022-12-18T01:21:11;14.70;44.60
67899;DHT22;54699;51.796;10.956;2022-12-18T01:23:44;14.70;44.60
67899;DHT22;54699;51.796;10.956;2022-12-18T01:26:11;14.70;44.60
67899;DHT22;54699;51.796;10.956;2022-12-18T01:28:40;14.70;44.50
67899;DHT22;54699;51.796;10.956;2022-12-18T01:31:11;14.60;44.50
67899;DHT22;54699;51.796;10.956;2022-12-18T01:33:39;14.70;44.60
67899;DHT22;54699;51.796;10.956;2022-12-18T01:36:06;14.60;44.50
67899;DHT22;54699;51.796;10.956;2022-12-18T01:38:33;14.70;44.40
67899;DHT22;54699;51.796;10.956;2022-12-18T01:41:01;14.70;45.50
67899;DHT22;54699;51.796;10.956;2022-12-18T01:43:40;14.70;44.60
67899;DHT22;54699;51.796;10.956;2022-12-18T01:46:08;14.60;44.50
67899;DHT22;54699;51.796;10.956;2022-12-18T01:48:35;14.70;44.50
67899;DHT22;54699;51.796;10.956;2022-12-18T01:51:02;14.60;44.40
67899;DHT22;54699;51.796;10.956;2022-12-18T01:53:30;14.60;44.40
67899;DHT22;54699;51.796;10.956;2022-12-18T01:55:57;14.60;44.40
67899;DHT22;54699;51.796;10.956;2022-12-18T01:58:27;14.60;44.40
67899;DHT22;54699;51.796;10.956;2022-12-18T02:01:01;14.60;44.40
67899;DHT22;54699;51.796;10.956;2022-12-18T02:03:28;14.60;44.40
67899;DHT22;54699;51.796;10.956;2022-12-18T02:05:57;14.60;44.40
67899;DHT22;54699;51.796;10.956;2022-12-18T02:08:33;14.60;45.30
67899;DHT22;54699;51.796;10.956;2022-12-18T02:11:04;14.60;44.40
67899;DHT22;54699;51.796;10.956;2022-12-18T02:13:38;14.60;44.40
67899;DHT22;54699;51.796;10.956;2022-12-18T02:16:14;14.60;44.40
67899;DHT22;54699;51.796;10.956;2022-12-18T02:18:47;14.60;44.40
67899;DHT22;54699;51.796;10.956;2022-12-18T02:21:19;14.60;44.40
67899;DHT22;54699;51.796;10.956;2022-12-18T02:23:56;14.60;44.40
67899;DHT22;54699;51.796;10.956;2022-12-18T02:26:36;14.60;44.30
67899;DHT22;54699;51.796;10.956;2022-12-18T02:29:05;14.60;44.40
67899;DHT22;54699;51.796;10.956;2022-12-18T02:31:37;14.60;45.30
67899;DHT22;54699;51.796;10.956;2022-12-18T02:34:09;14.60;44.30
67899;DHT22;54699;51.796;10.956;2022-12-18T02:36:38;14.60;44.30
67899;DHT22;54699;51.796;10.956;2022-12-18T02:39:09;14.60;44.30
67899;DHT22;54699;51.796;10.956;2022-12-18T02:41:39;14.60;44.30
67899;DHT22;54699;51.796;10.956;2022-12-18T02:44:07;14.60;44.30
67899;DHT22;54699;51.796;10.956;2022-12-18T02:46:36;14.60;44.30
67899;DHT22;54699;51.796;10.956;2022-12-18T02:49:14;14.60;44.30
67899;DHT22;54699;51.796;10.956;2022-12-18T02:51:50;14.60;44.20
67899;DHT22;54699;51.796;10.956;2022-12-18T02:57:20;14.60;44.30
67899;DHT22;54699;51.796;10.956;2022-12-18T02:59:56;14.50;44.20
67899;DHT22;54699;51.796;10.956;2022-12-18T03:02:29;14.50;44.20
67899;DHT22;54699;51.796;10.956;2022-12-18T03:05:04;14.50;44.20
67899;DHT22;54699;51.796;10.956;2022-12-18T03:07:37;14.50;44.20
67899;DHT22;54699;51.796;10.956;2022-12-18T03:10:08;14.50;44.20
67899;DHT22;54699;51.796;10.956;2022-12-18T03:12:41;14.60;44.20
67899;DHT22;54699;51.796;10.956;2022-12-18T03:15:12;14.50;44.20
67899;DHT22;54699;51.796;10.956;2022-12-18T03:17:44;14.50;44.20
67899;DHT22;54699;51.796;10.956;2022-12-18T03:20:18;14.50;44.10
67899;DHT22;54699;51.796;10.956;2022-12-18T03:22:49;14.50;44.20
67899;DHT22;54699;51.796;10.956;2022-12-18T03:25:20;14.50;44.20
67899;DHT22;54699;51.796;10.956;2022-12-18T03:27:50;14.50;44.20
67899;DHT22;54699;51.796;10.956;2022-12-18T03:30:20;14.50;44.20
67899;DHT22;54699;51.796;10.956;2022-12-18T03:32:47;14.50;44.20
67899;DHT22;54699;51.796;10.956;2022-12-18T03:35:20;14.50;44.20
67899;DHT22;54699;51.796;10.956;2022-12-18T03:37:49;14.50;44.20
67899;DHT22;54699;51.796;10.956;2022-12-18T03:40:16;14.50;44.20
67899;DHT22;54699;51.796;10.956;2022-12-18T03:42:45;14.50;44.10
67899;DHT22;54699;51.796;10.956;2022-12-18T03:45:20;14.50;44.20
67899;DHT22;54699;51.796;10.956;2022-12-18T03:47:56;14.50;44.10
67899;DHT22;54699;51.796;10.956;2022-12-18T03:50:28;14.50;44.10
67899;DHT22;54699;51.796;10.956;2022-12-18T03:53:04;14.50;44.20
67899;DHT22;54699;51.796;10.956;2022-12-18T03:55:40;14.50;44.10
67899;DHT22;54699;51.796;10.956;2022-12-18T03:58:09;14.50;44.10
67899;DHT22;54699;51.796;10.956;2022-12-18T04:00:41;14.50;44.10
67899;DHT22;54699;51.796;10.956;2022-12-18T04:03:09;14.50;44.10
67899;DHT22;54699;51.796;10.956;2022-12-18T04:05:38;14.50;44.10
67899;DHT22;54699;51.796;10.956;2022-12-18T04:08:07;14.50;44.00
67899;DHT22;54699;51.796;10.956;2022-12-18T04:10:34;14.50;43.90
67899;DHT22;54699;51.796;10.956;2022-12-18T04:13:01;14.50;44.00
67899;DHT22;54699;51.796;10.956;2022-12-18T04:15:28;14.50;44.00
67899;DHT22;54699;51.796;10.956;2022-12-18T04:17:56;14.50;44.00
67899;DHT22;54699;51.796;10.956;2022-12-18T04:20:23;14.50;44.00
67899;DHT22;54699;51.796;10.956;2022-12-18T04:22:50;14.40;43.90
67899;DHT22;54699;51.796;10.956;2022-12-18T04:25:16;14.40;43.90
67899;DHT22;54699;51.796;10.956;2022-12-18T04:27:43;14.40;43.90
67899;DHT22;54699;51.796;10.956;2022-12-18T04:30:10;14.40;43.90
67899;DHT22;54699;51.796;10.956;2022-12-18T04:32:37;14.40;43.90
67899;DHT22;54699;51.796;10.956;2022-12-18T04:35:06;14.40;43.90
67899;DHT22;54699;51.796;10.956;2022-12-18T04:37:35;14.40;43.90
67899;DHT22;54699;51.796;10.956;2022-12-18T04:40:02;14.40;43.80
67899;DHT22;54699;51.796;10.956;2022-12-18T04:42:30;14.40;43.80
67899;DHT22;54699;51.796;10.956;2022-12-18T04:44:56;14.40;43.80
67899;DHT22;54699;51.796;10.956;2022-12-18T04:47:23;14.40;43.90
67899;DHT22;54699;51.796;10.956;2022-12-18T04:49:50;14.40;43.90
67899;DHT22;54699;51.796;10.956;2022-12-18T04:52:18;14.40;43.70
67899;DHT22;54699;51.796;10.956;2022-12-18T04:54:45;14.40;43.70
67899;DHT22;54699;51.796;10.956;2022-12-18T04:57:11;14.40;43.70
67899;DHT22;54699;51.796;10.956;2022-12-18T04:59:38;14.40;43.70
67899;DHT22;54699;51.796;10.956;2022-12-18T05:02:05;14.40;43.80
67899;DHT22;54699;51.796;10.956;2022-12-18T05:04:32;14.40;43.70
67899;DHT22;54699;51.796;10.956;2022-12-18T05:06:59;14.40;43.70
67899;DHT22;54699;51.796;10.956;2022-12-18T05:09:27;14.40;43.70
67899;DHT22;54699;51.796;10.956;2022-12-18T05:11:53;14.40;43.60
67899;DHT22;54699;51.796;10.956;2022-12-18T05:14:20;14.40;43.70
67899;DHT22;54699;51.796;10.956;2022-12-18T05:16:47;14.40;43.70
67899;DHT22;54699;51.796;10.956;2022-12-18T05:19:14;14.40;43.70
67899;DHT22;54699;51.796;10.956;2022-12-18T05:21:41;14.40;43.60
67899;DHT22;54699;51.796;10.956;2022-12-18T05:24:07;14.30;43.70
67899;DHT22;54699;51.796;10.956;2022-12-18T05:26:35;14.40;43.60
67899;DHT22;54699;51.796;10.956;2022-12-18T05:29:02;14.40;43.70
67899;DHT22;54699;51.796;10.956;2022-12-18T05:31:29;14.40;43.60
67899;DHT22;54699;51.796;10.956;2022-12-18T05:33:56;14.40;43.60
67899;DHT22;54699;51.796;10.956;2022-12-18T05:36:23;14.40;43.60
67899;DHT22;54699;51.796;10.956;2022-12-18T05:38:50;14.40;43.60
67899;DHT22;54699;51.796;10.956;2022-12-18T05:41:17;14.40;43.60
67899;DHT22;54699;51.796;10.956;2022-12-18T05:43:45;14.40;43.60
67899;DHT22;54699;51.796;10.956;2022-12-18T05:46:12;14.40;43.60
67899;DHT22;54699;51.796;10.956;2022-12-18T05:48:41;14.40;43.60
67899;DHT22;54699;51.796;10.956;2022-12-18T05:51:08;14.40;43.60
67899;DHT22;54699;51.796;10.956;2022-12-18T05:53:37;14.40;44.40
67899;DHT22;54699;51.796;10.956;2022-12-18T05:56:04;14.30;43.50
67899;DHT22;54699;51.796;10.956;2022-12-18T05:58:34;14.40;43.50
67899;DHT22;54699;51.796;10.956;2022-12-18T06:01:07;14.40;43.60
67899;DHT22;54699;51.796;10.956;2022-12-18T06:03:36;14.30;43.50
67899;DHT22;54699;51.796;10.956;2022-12-18T06:06:03;14.30;43.40
67899;DHT22;54699;51.796;10.956;2022-12-18T06:08:30;14.30;43.40
67899;DHT22;54699;51.796;10.956;2022-12-18T06:10:57;14.30;43.40
67899;DHT22;54699;51.796;10.956;2022-12-18T06:13:23;14.30;43.50
67899;DHT22;54699;51.796;10.956;2022-12-18T06:15:50;14.30;43.40
67899;DHT22;54699;51.796;10.956;2022-12-18T06:18:18;14.30;43.40
67899;DHT22;54699;51.796;10.956;2022-12-18T06:20:45;14.40;43.40
67899;DHT22;54699;51.796;10.956;2022-12-18T06:23:20;14.30;43.40
67899;DHT22;54699;51.796;10.956;2022-12-18T06:25:47;14.30;43.30
67899;DHT22;54699;51.796;10.956;2022-12-18T06:28:14;14.30;43.30
67899;DHT22;54699;51.796;10.956;2022-12-18T06:30:42;14.30;43.30
67899;DHT22;54699;51.796;10.956;2022-12-18T06:33:09;14.30;43.30
67899;DHT22;54699;51.796;10.956;2022-12-18T06:35:37;14.30;43.30
67899;DHT22;54699;51.796;10.956;2022-12-18T06:38:04;14.30;43.30
67899;DHT22;54699;51.796;10.956;2022-12-18T06:40:31;14.30;43.40
67899;DHT22;54699;51.796;10.956;2022-12-18T06:42:58;14.30;43.40
67899;DHT22;54699;51.796;10.956;2022-12-18T06:45:24;14.30;43.30
67899;DHT22;54699;51.796;10.956;2022-12-18T06:47:51;14.30;43.30
67899;DHT22;54699;51.796;10.956;2022-12-18T06:50:18;14.30;43.30
67899;DHT22;54699;51.796;10.956;2022-12-18T06:52:46;14.30;43.30
67899;DHT22;54699;51.796;10.956;2022-12-18T06:55:13;14.30;43.30
67899;DHT22;54699;51.796;10.956;2022-12-18T06:57:39;14.30;43.30
67899;DHT22;54699;51.796;10.956;2022-12-18T07:00:06;14.30;43.30
67899;DHT22;54699;51.796;10.956;2022-12-18T07:02:34;14.30;43.20
67899;DHT22;54699;51.796;10.956;2022-12-18T07:05:01;14.30;43.30
67899;DHT22;54699;51.796;10.956;2022-12-18T07:07:27;14.30;43.30
67899;DHT22;54699;51.796;10.956;2022-12-18T07:09:55;14.30;43.30
67899;DHT22;54699;51.796;10.956;2022-12-18T07:12:22;14.30;43.30
67899;DHT22;54699;51.796;10.956;2022-12-18T07:14:49;14.30;43.20
67899;DHT22;54699;51.796;10.956;2022-12-18T07:17:16;14.30;43.30
67899;DHT22;54699;51.796;10.956;2022-12-18T07:19:42;14.30;43.30
67899;DHT22;54699;51.796;10.956;2022-12-18T07:22:09;14.30;43.30
67899;DHT22;54699;51.796;10.956;2022-12-18T07:24:36;14.30;43.20
67899;DHT22;54699;51.796;10.956;2022-12-18T07:27:04;14.30;43.10
67899;DHT22;54699;51.796;10.956;2022-12-18T07:29:30;14.30;43.20
67899;DHT22;54699;51.796;10.956;2022-12-18T07:31:57;14.30;43.30
67899;DHT22;54699;51.796;10.956;2022-12-18T07:34:24;14.30;43.20
67899;DHT22;54699;51.796;10.956;2022-12-18T07:36:51;14.30;43.20
67899;DHT22;54699;51.796;10.956;2022-12-18T07:39:17;14.30;43.10
67899;DHT22;54699;51.796;10.956;2022-12-18T07:41:44;14.30;43.30
67899;DHT22;54699;51.796;10.956;2022-12-18T07:44:33;14.30;43.10
67899;DHT22;54699;51.796;10.956;2022-12-18T07:47:00;14.30;43.10
67899;DHT22;54699;51.796;10.956;2022-12-18T07:49:27;14.30;43.10
67899;DHT22;54699;51.796;10.956;2022-12-18T07:51:54;14.30;43.10
67899;DHT22;54699;51.796;10.956;2022-12-18T07:54:21;14.30;43.00
67899;DHT22;54699;51.796;10.956;2022-12-18T07:56:48;14.30;43.00
67899;DHT22;54699;51.796;10.956;2022-12-18T07:59:14;14.30;43.20
67899;DHT22;54699;51.796;10.956;2022-12-18T08:01:43;14.30;43.10
67899;DHT22;54699;51.796;10.956;2022-12-18T08:04:10;14.30;43.10
67899;DHT22;54699;51.796;10.956;2022-12-18T08:06:37;14.30;43.20
67899;DHT22;54699;51.796;10.956;2022-12-18T08:09:03;14.30;43.00
67899;DHT22;54699;51.796;10.956;2022-12-18T08:11:30;14.30;43.00
67899;DHT22;54699;51.796;10.956;2022-12-18T08:13:57;14.30;43.10
67899;DHT22;54699;51.796;10.956;2022-12-18T08:16:24;14.30;43.10
67899;DHT22;54699;51.796;10.956;2022-12-18T08:18:52;14.30;43.20
67899;DHT22;54699;51.796;10.956;2022-12-18T08:21:20;14.30;43.20
67899;DHT22;54699;51.796;10.956;2022-12-18T08:23:49;14.30;43.00
67899;DHT22;54699;51.796;10.956;2022-12-18T08:26:17;14.30;43.20
67899;DHT22;54699;51.796;10.956;2022-12-18T08:28:44;14.30;43.20
67899;DHT22;54699;51.796;10.956;2022-12-18T08:31:10;14.30;43.20
67899;DHT22;54699;51.796;10.956;2022-12-18T08:33:38;14.30;43.10
67899;DHT22;54699;51.796;10.956;2022-12-18T08:36:07;14.30;43.20
67899;DHT22;54699;51.796;10.956;2022-12-18T08:38:35;14.30;43.10
67899;DHT22;54699;51.796;10.956;2022-12-18T08:41:02;14.30;43.10
67899;DHT22;54699;51.796;10.956;2022-12-18T08:43:31;14.30;43.20
67899;DHT22;54699;51.796;10.956;2022-12-18T08:46:15;14.30;43.30
67899;DHT22;54699;51.796;10.956;2022-12-18T08:48:43;14.30;43.20
67899;DHT22;54699;51.796;10.956;2022-12-18T08:51:11;14.30;43.50
67899;DHT22;54699;51.796;10.956;2022-12-18T08:53:38;14.30;43.40
67899;DHT22;54699;51.796;10.956;2022-12-18T08:56:05;14.30;43.50
67899;DHT22;54699;51.796;10.956;2022-12-18T08:58:32;14.30;43.50
67899;DHT22;54699;51.796;10.956;2022-12-18T09:00:59;14.30;43.60
67899;DHT22;54699;51.796;10.956;2022-12-18T09:03:27;14.40;43.60
67899;DHT22;54699;51.796;10.956;2022-12-18T09:05:53;14.30;43.50
67899;DHT22;54699;51.796;10.956;2022-12-18T09:08:21;14.40;43.50
67899;DHT22;54699;51.796;10.956;2022-12-18T09:10:49;14.50;43.40
67899;DHT22;54699;51.796;10.956;2022-12-18T09:13:16;14.60;43.20
67899;DHT22;54699;51.796;10.956;2022-12-18T09:15:44;14.60;43.00
67899;DHT22;54699;51.796;10.956;2022-12-18T09:18:12;14.60;43.10
67899;DHT22;54699;51.796;10.956;2022-12-18T09:20:40;14.60;43.00
67899;DHT22;54699;51.796;10.956;2022-12-18T09:23:07;14.70;43.10
67899;DHT22;54699;51.796;10.956;2022-12-18T09:25:36;14.70;43.30
67899;DHT22;54699;51.796;10.956;2022-12-18T09:28:04;14.80;43.30
67899;DHT22;54699;51.796;10.956;2022-12-18T09:30:32;14.80;43.20
67899;DHT22;54699;51.796;10.956;2022-12-18T09:32:59;14.80;43.10
67899;DHT22;54699;51.796;10.956;2022-12-18T09:35:26;14.80;43.10
67899;DHT22;54699;51.796;10.956;2022-12-18T09:37:54;14.80;43.30
67899;DHT22;54699;51.796;10.956;2022-12-18T09:40:21;14.80;43.30
67899;DHT22;54699;51.796;10.956;2022-12-18T09:42:54;14.80;43.30
67899;DHT22;54699;51.796;10.956;2022-12-18T09:45:25;14.80;43.30
67899;DHT22;54699;51.796;10.956;2022-12-18T09:47:53;14.90;43.30
67899;DHT22;54699;51.796;10.956;2022-12-18T09:50:23;14.90;43.30
67899;DHT22;54699;51.796;10.956;2022-12-18T09:52:54;14.90;43.20
67899;DHT22;54699;51.796;10.956;2022-12-18T09:55:24;14.90;43.20
67899;DHT22;54699;51.796;10.956;2022-12-18T09:57:56;14.90;43.30
67899;DHT22;54699;51.796;10.956;2022-12-18T10:00:31;15.00;43.20
67899;DHT22;54699;51.796;10.956;2022-12-18T10:02:58;15.00;43.20
67899;DHT22;54699;51.796;10.956;2022-12-18T10:05:29;15.00;43.30
67899;DHT22;54699;51.796;10.956;2022-12-18T10:08:04;15.00;43.30
67899;DHT22;54699;51.796;10.956;2022-12-18T10:10:37;15.00;43.30
67899;DHT22;54699;51.796;10.956;2022-12-18T10:13:15;15.10;43.40
67899;DHT22;54699;51.796;10.956;2022-12-18T10:15:50;15.10;43.30
67899;DHT22;54699;51.796;10.956;2022-12-18T10:18:27;15.10;43.30
67899;DHT22;54699;51.796;10.956;2022-12-18T10:21:07;15.10;43.40
67899;DHT22;54699;51.796;10.956;2022-12-18T10:23:39;15.20;43.50
67899;DHT22;54699;51.796;10.956;2022-12-18T10:26:14;15.20;43.50
67899;DHT22;54699;51.796;10.956;2022-12-18T10:28:42;15.20;43.60
67899;DHT22;54699;51.796;10.956;2022-12-18T10:31:12;15.20;43.70
67899;DHT22;54699;51.796;10.956;2022-12-18T10:33:43;15.20;43.80
67899;DHT22;54699;51.796;10.956;2022-12-18T10:36:10;15.30;43.80
67899;DHT22;54699;51.796;10.956;2022-12-18T10:38:37;15.20;43.90
67899;DHT22;54699;51.796;10.956;2022-12-18T10:41:05;15.30;43.90
67899;DHT22;54699;51.796;10.956;2022-12-18T10:43:37;15.30;43.90
67899;DHT22;54699;51.796;10.956;2022-12-18T10:46:14;15.30;45.20
67899;DHT22;54699;51.796;10.956;2022-12-18T10:48:53;15.30;44.30
67899;DHT22;54699;51.796;10.956;2022-12-18T10:51:22;15.30;44.30
67899;DHT22;54699;51.796;10.956;2022-12-18T10:53:52;15.30;44.40
67899;DHT22;54699;51.796;10.956;2022-12-18T10:56:23;15.40;44.20
67899;DHT22;54699;51.796;10.956;2022-12-18T10:58:56;15.40;44.40
67899;DHT22;54699;51.796;10.956;2022-12-18T11:01:26;15.40;44.40
67899;DHT22;54699;51.796;10.956;2022-12-18T11:04:00;15.40;44.50
67899;DHT22;54699;51.796;10.956;2022-12-18T11:06:33;15.40;44.40
67899;DHT22;54699;51.796;10.956;2022-12-18T11:09:01;15.50;44.30
67899;DHT22;54699;51.796;10.956;2022-12-18T11:11:29;15.40;44.20
67899;DHT22;54699;51.796;10.956;2022-12-18T11:13:59;15.50;44.20
67899;DHT22;54699;51.796;10.956;2022-12-18T11:16:30;15.50;44.20
67899;DHT22;54699;51.796;10.956;2022-12-18T11:19:17;15.50;44.20
67899;DHT22;54699;51.796;10.956;2022-12-18T11:21:50;15.50;44.30
67899;DHT22;54699;51.796;10.956;2022-12-18T11:24:22;15.50;44.30
67899;DHT22;54699;51.796;10.956;2022-12-18T11:26:54;15.50;44.30
67899;DHT22;54699;51.796;10.956;2022-12-18T11:29:23;15.50;44.40
67899;DHT22;54699;51.796;10.956;2022-12-18T11:31:57;15.50;44.10
67899;DHT22;54699;51.796;10.956;2022-12-18T11:34:50;15.60;44.30
67899;DHT22;54699;51.796;10.956;2022-12-18T11:37:22;15.60;44.00
67899;DHT22;54699;51.796;10.956;2022-12-18T11:39:51;15.60;44.20
67899;DHT22;54699;51.796;10.956;2022-12-18T11:42:23;15.60;44.10
67899;DHT22;54699;51.796;10.956;2022-12-18T11:44:55;15.70;44.10
67899;DHT22;54699;51.796;10.956;2022-12-18T11:47:27;15.70;44.10
67899;DHT22;54699;51.796;10.956;2022-12-18T11:50:05;15.70;43.70
67899;DHT22;54699;51.796;10.956;2022-12-18T11:52:39;15.70;43.80
67899;DHT22;54699;51.796;10.956;2022-12-18T11:55:10;15.80;43.80
67899;DHT22;54699;51.796;10.956;2022-12-18T11:57:42;15.80;43.70
67899;DHT22;54699;51.796;10.956;2022-12-18T12:00:19;15.80;41.20
67899;DHT22;54699;51.796;10.956;2022-12-18T12:02:57;15.80;41.00
67899;DHT22;54699;51.796;10.956;2022-12-18T12:05:42;15.90;40.00
67899;DHT22;54699;51.796;10.956;2022-12-18T12:08:21;15.90;44.30
67899;DHT22;54699;51.796;10.956;2022-12-18T12:10:58;15.90;44.50
67899;DHT22;54699;51.796;10.956;2022-12-18T12:13:37;15.90;42.00
67899;DHT22;54699;51.796;10.956;2022-12-18T12:16:13;15.90;41.20
67899;DHT22;54699;51.796;10.956;2022-12-18T12:18:49;16.00;41.40
67899;DHT22;54699;51.796;10.956;2022-12-18T12:21:26;15.90;44.50
67899;DHT22;54699;51.796;10.956;2022-12-18T12:24:02;16.00;45.00
67899;DHT22;54699;51.796;10.956;2022-12-18T12:26:47;16.00;45.40
67899;DHT22;54699;51.796;10.956;2022-12-18T12:29:24;16.00;45.70
67899;DHT22;54699;51.796;10.956;2022-12-18T12:32:05;16.10;46.00
67899;DHT22;54699;51.796;10.956;2022-12-18T12:34:42;16.10;46.00
67899;DHT22;54699;51.796;10.956;2022-12-18T12:37:22;16.10;45.80
67899;DHT22;54699;51.796;10.956;2022-12-18T12:39:57;16.10;45.90
67899;DHT22;54699;51.796;10.956;2022-12-18T12:42:27;16.10;45.80
67899;DHT22;54699;51.796;10.956;2022-12-18T12:45:18;16.10;45.80
67899;DHT22;54699;51.796;10.956;2022-12-18T12:47:49;16.20;45.70
67899;DHT22;54699;51.796;10.956;2022-12-18T12:50:19;16.20;45.80
67899;DHT22;54699;51.796;10.956;2022-12-18T12:52:49;16.20;45.40
67899;DHT22;54699;51.796;10.956;2022-12-18T12:55:18;16.20;44.50
67899;DHT22;54699;51.796;10.956;2022-12-18T12:57:51;16.20;43.60
67899;DHT22;54699;51.796;10.956;2022-12-18T13:00:26;16.20;43.00
67899;DHT22;54699;51.796;10.956;2022-12-18T13:02:59;16.20;42.20
67899;DHT22;54699;51.796;10.956;2022-12-18T13:05:38;16.20;41.90
67899;DHT22;54699;51.796;10.956;2022-12-18T13:08:11;16.20;42.90
67899;DHT22;54699;51.796;10.956;2022-12-18T13:10:47;16.20;41.80
67899;DHT22;54699;51.796;10.956;2022-12-18T13:13:14;16.20;41.50
67899;DHT22;54699;51.796;10.956;2022-12-18T13:15:42;16.20;41.60
67899;DHT22;54699;51.796;10.956;2022-12-18T13:18:11;16.20;40.90
67899;DHT22;54699;51.796;10.956;2022-12-18T13:20:43;16.20;40.60
67899;DHT22;54699;51.796;10.956;2022-12-18T13:23:25;16.20;41.70
67899;DHT22;54699;51.796;10.956;2022-12-18T13:25:55;16.20;40.70
67899;DHT22;54699;51.796;10.956;2022-12-18T13:28:23;16.20;42.40
67899;DHT22;54699;51.796;10.956;2022-12-18T13:31:10;16.20;39.30
67899;DHT22;54699;51.796;10.956;2022-12-18T13:33:38;16.20;40.10
67899;DHT22;54699;51.796;10.956;2022-12-18T13:36:25;16.20;40.60
67899;DHT22;54699;51.796;10.956;2022-12-18T13:39:10;16.20;40.70
67899;DHT22;54699;51.796;10.956;2022-12-18T13:41:48;16.20;38.30
67899;DHT22;54699;51.796;10.956;2022-12-18T13:44:22;16.10;42.70
67899;DHT22;54699;51.796;10.956;2022-12-18T13:46:54;16.10;42.30
67899;DHT22;54699;51.796;10.956;2022-12-18T13:49:22;16.10;42.90
67899;DHT22;54699;51.796;10.956;2022-12-18T13:51:53;16.10;39.70
67899;DHT22;54699;51.796;10.956;2022-12-18T13:54:24;16.10;44.00
67899;DHT22;54699;51.796;10.956;2022-12-18T13:56:55;16.10;43.80
67899;DHT22;54699;51.796;10.956;2022-12-18T13:59:22;16.10;44.70
67899;DHT22;54699;51.796;10.956;2022-12-18T14:01:51;16.00;45.20
67899;DHT22;54699;51.796;10.956;2022-12-18T14:04:23;16.00;46.80
67899;DHT22;54699;51.796;10.956;2022-12-18T14:06:57;16.00;47.00
67899;DHT22;54699;51.796;10.956;2022-12-18T14:09:28;16.00;48.10
67899;DHT22;54699;51.796;10.956;2022-12-18T14:11:57;16.00;48.60
67899;DHT22;54699;51.796;10.956;2022-12-18T14:14:39;16.00;48.90
67899;DHT22;54699;51.796;10.956;2022-12-18T14:17:08;16.00;48.20
67899;DHT22;54699;51.796;10.956;2022-12-18T14:19:36;15.90;47.90
67899;DHT22;54699;51.796;10.956;2022-12-18T14:22:11;15.90;47.30
67899;DHT22;54699;51.796;10.956;2022-12-18T14:24:41;15.90;46.80
67899;DHT22;54699;51.796;10.956;2022-12-18T14:27:13;15.90;46.00
67899;DHT22;54699;51.796;10.956;2022-12-18T14:29:47;15.90;46.10
67899;DHT22;54699;51.796;10.956;2022-12-18T14:32:14;15.90;45.80
67899;DHT22;54699;51.796;10.956;2022-12-18T14:34:42;15.90;46.00
67899;DHT22;54699;51.796;10.956;2022-12-18T14:37:10;15.90;46.00
67899;DHT22;54699;51.796;10.956;2022-12-18T14:39:39;15.80;45.80
67899;DHT22;54699;51.796;10.956;2022-12-18T14:42:09;15.90;45.60
67899;DHT22;54699;51.796;10.956;2022-12-18T14:44:36;15.90;45.60
67899;DHT22;54699;51.796;10.956;2022-12-18T14:47:03;15.90;45.90
67899;DHT22;54699;51.796;10.956;2022-12-18T14:49:31;15.90;45.80
67899;DHT22;54699;51.796;10.956;2022-12-18T14:52:00;15.80;45.80
67899;DHT22;54699;51.796;10.956;2022-12-18T14:54:30;15.80;45.50
67899;DHT22;54699;51.796;10.956;2022-12-18T14:57:00;15.80;45.40
67899;DHT22;54699;51.796;10.956;2022-12-18T14:59:28;15.80;46.80
67899;DHT22;54699;51.796;10.956;2022-12-18T15:01:57;15.80;45.60
67899;DHT22;54699;51.796;10.956;2022-12-18T15:04:28;15.80;45.80
67899;DHT22;54699;51.796;10.956;2022-12-18T15:07:07;15.80;45.80
67899;DHT22;54699;51.796;10.956;2022-12-18T15:09:39;15.80;45.80
67899;DHT22;54699;51.796;10.956;2022-12-18T15:12:17;15.80;45.80
67899;DHT22;54699;51.796;10.956;2022-12-18T15:14:51;15.80;45.70
67899;DHT22;54699;51.796;10.956;2022-12-18T15:17:18;15.80;45.70
67899;DHT22;54699;51.796;10.956;2022-12-18T15:19:47;15.80;45.50
67899;DHT22;54699;51.796;10.956;2022-12-18T15:22:20;15.80;45.70
67899;DHT22;54699;51.796;10.956;2022-12-18T15:24:50;15.80;45.70
67899;DHT22;54699;51.796;10.956;2022-12-18T15:27:28;15.70;46.30
67899;DHT22;54699;51.796;10.956;2022-12-18T15:30:17;15.70;45.40
67899;DHT22;54699;51.796;10.956;2022-12-18T15:32:46;15.70;45.60
67899;DHT22;54699;51.796;10.956;2022-12-18T15:35:15;15.70;45.60
67899;DHT22;54699;51.796;10.956;2022-12-18T15:37:44;15.70;45.50